Time;durP1;ratioP1;P1;durP2;ratioP2;P2;SDS_P1;SDS_P2;PMS_P1;PMS_P2;Temp;Humidity;BMP_temperature;BMP_pressure;BME280_temperature;BME280_humidity;BME280_pressure;Samples;Min_cycle;Max_cycle;Signal;HPM_P1;HPM_P2
2022/09/09 00:01:00;;;;;;;4.55;1.60;;;;;;;17.51;90.69;100658.00;5075890;28;20056;-56
2022/09/09 00:03:34;;;;;;;3.97;1.52;;;;;;;17.49;89.92;100657.53;5054533;28;20465;-54
2022/09/09 00:06:09;;;;;;;2.90;1.52;;;;;;;17.46;90.55;100659.81;5066708;28;20421;-55
2022/09/09 00:09:06;;;;;;;5.30;2.17;;;;;;;17.45;90.11;100655.41;5062066;28;20490;-54
2022/09/09 00:11:46;;;;;;;3.40;1.50;;;;;;;17.43;90.28;100651.34;5074359;28;20040;-57
2022/09/09 00:14:36;;;;;;;4.75;1.45;;;;;;;17.44;90.11;100653.00;5074034;28;20052;-52
2022/09/09 00:17:30;;;;;;;6.97;1.45;;;;;;;17.38;89.10;100644.03;5061425;28;20040;-62
2022/09/09 00:20:35;;;;;;;7.63;1.65;;;;;;;17.30;90.43;100639.31;5063321;28;20059;-58
2022/09/09 00:23:25;;;;;;;3.63;1.53;;;;;;;17.34;90.80;100645.81;5043266;28;20052;-57
2022/09/09 00:25:57;;;;;;;2.75;1.27;;;;;;;17.38;90.50;100638.53;5075443;28;20039;-56
2022/09/09 00:28:26;;;;;;;4.47;1.77;;;;;;;17.39;89.36;100642.94;5075372;28;20508;-56
2022/09/09 00:30:54;;;;;;;5.35;2.00;;;;;;;17.29;89.49;100634.94;5056576;28;20041;-57
2022/09/09 00:33:26;;;;;;;3.17;1.40;;;;;;;17.21;90.12;100632.97;5054023;28;20037;-57
2022/09/09 00:36:01;;;;;;;4.25;1.70;;;;;;;17.22;90.42;100642.84;5065457;28;20041;-56
2022/09/09 00:38:49;;;;;;;4.95;1.73;;;;;;;17.24;90.18;100643.34;5069813;28;20086;-57
2022/09/09 00:41:28;;;;;;;3.00;1.45;;;;;;;17.22;89.65;100634.56;5061285;28;20049;-53
2022/09/09 00:44:24;;;;;;;3.63;1.25;;;;;;;17.14;89.91;100627.09;5065835;28;20502;-54
2022/09/09 00:47:18;;;;;;;4.53;1.92;;;;;;;17.13;90.22;100636.50;5069592;28;20051;-54
2022/09/09 00:50:02;;;;;;;3.85;1.73;;;;;;;17.07;89.91;100626.75;5048576;28;20053;-54
2022/09/09 00:52:53;;;;;;;1.90;1.42;;;;;;;17.00;90.55;100624.44;5064184;28;20503;-57
2022/09/09 00:55:59;;;;;;;3.13;1.63;;;;;;;16.93;91.37;100624.06;5053477;28;20041;-52
2022/09/09 00:58:27;;;;;;;3.47;1.67;;;;;;;16.93;91.25;100610.31;5065841;28;20041;-57
2022/09/09 01:01:11;;;;;;;3.35;1.65;;;;;;;16.93;91.31;100613.91;5044223;28;20041;-57
2022/09/09 01:03:59;;;;;;;3.38;1.70;;;;;;;16.95;90.84;100608.88;5048138;28;20041;-57
2022/09/09 01:06:36;;;;;;;4.38;1.60;;;;;;;16.94;90.51;100606.44;5066059;28;20117;-56
2022/09/09 01:09:28;;;;;;;3.35;1.60;;;;;;;16.93;90.70;100610.31;5044017;28;20036;-59
2022/09/09 01:12:20;;;;;;;5.70;1.90;;;;;;;16.93;91.23;100608.41;5068463;28;20037;-57
2022/09/09 01:15:12;;;;;;;4.53;1.60;;;;;;;16.97;90.74;100605.81;5064043;28;20503;-54
2022/09/09 01:17:52;;;;;;;4.85;1.70;;;;;;;16.99;90.63;100617.31;5056668;28;20052;-54
2022/09/09 01:20:29;;;;;;;5.18;1.85;;;;;;;16.97;89.93;100617.63;5072967;28;20036;-54
2022/09/09 01:23:19;;;;;;;4.10;1.67;;;;;;;16.95;90.06;100619.88;5072162;28;20043;-57
2022/09/09 01:26:33;;;;;;;5.22;1.60;;;;;;;16.99;90.02;100609.88;5068464;28;20407;-53
2022/09/09 01:29:08;;;;;;;5.03;1.60;;;;;;;16.94;89.80;100618.25;5075412;28;20040;-58
2022/09/09 01:32:01;;;;;;;4.70;1.88;;;;;;;16.87;90.54;100617.91;5073526;28;20044;-54
2022/09/09 01:34:36;;;;;;;2.28;1.38;;;;;;;16.86;90.70;100609.94;5062417;28;20071;-52
2022/09/09 01:37:07;;;;;;;3.53;1.30;;;;;;;16.85;90.62;100609.13;5043684;28;20044;-56
2022/09/09 01:39:36;;;;;;;4.97;1.58;;;;;;;16.79;90.54;100608.47;5072824;28;20048;-56
2022/09/09 01:42:10;;;;;;;6.32;1.60;;;;;;;16.75;90.67;100606.63;5057621;28;20045;-58
2022/09/09 01:44:38;;;;;;;3.40;1.50;;;;;;;16.70;90.38;100599.31;5058380;28;20418;-56
2022/09/09 01:47:07;;;;;;;2.58;1.50;;;;;;;16.66;91.49;100611.25;5060042;28;20101;-57
2022/09/09 01:49:40;;;;;;;7.68;1.88;;;;;;;16.70;91.85;100606.78;5066528;28;20048;-57
2022/09/09 01:52:18;;;;;;;4.35;1.42;;;;;;;16.74;91.65;100614.09;5053984;28;20052;-55
2022/09/09 01:54:46;;;;;;;3.83;1.50;;;;;;;16.78;91.74;100603.25;5075215;28;20048;-59
2022/09/09 01:57:42;;;;;;;4.60;1.55;;;;;;;16.83;90.72;100605.88;5067914;28;20064;-57
2022/09/09 02:00:14;;;;;;;5.28;1.77;;;;;;;16.79;91.59;100596.66;5068304;28;20051;-58
2022/09/09 02:03:06;;;;;;;1.60;1.50;;;;;;;16.81;91.65;100603.47;5059110;28;20048;-57
2022/09/09 02:05:55;;;;;;;6.18;1.70;;;;;;;16.83;90.41;100594.88;5044835;28;20049;-56
2022/09/09 02:08:40;;;;;;;7.07;2.20;;;;;;;16.75;91.56;100593.69;5057616;28;20033;-59
2022/09/09 02:11:13;;;;;;;3.05;1.40;;;;;;;16.74;91.61;100585.72;5066701;28;20054;-54
2022/09/09 02:14:08;;;;;;;4.38;1.52;;;;;;;16.72;91.82;100580.56;5070364;28;20041;-55
2022/09/09 02:16:52;;;;;;;5.83;1.70;;;;;;;16.69;92.01;100574.88;5063169;28;20053;-56
2022/09/09 02:19:49;;;;;;;3.85;1.25;;;;;;;16.68;92.35;100571.31;5067246;28;20036;-57
2022/09/09 02:22:26;;;;;;;5.82;2.13;;;;;;;16.67;92.64;100574.38;5071341;28;20524;-58
2022/09/09 02:24:56;;;;;;;6.50;2.20;;;;;;;16.67;92.90;100579.88;5036584;28;20563;-57
2022/09/09 02:27:27;;;;;;;4.28;1.73;;;;;;;16.67;92.37;100577.13;5045104;28;20037;-57
2022/09/09 02:29:56;;;;;;;6.13;1.80;;;;;;;16.65;92.14;100571.94;5051287;28;20394;-58
2022/09/09 02:32:36;;;;;;;5.95;1.80;;;;;;;16.56;92.61;100574.63;5067512;28;20086;-59
2022/09/09 02:35:10;;;;;;;5.28;1.75;;;;;;;16.47;93.83;100576.50;5068349;28;20043;-57
2022/09/09 02:37:41;;;;;;;5.70;1.85;;;;;;;16.49;94.29;100567.97;5035270;28;20508;-56
2022/09/09 02:40:12;;;;;;;4.13;2.00;;;;;;;16.49;93.85;100584.47;5046133;28;20064;-57
2022/09/09 02:42:47;;;;;;;10.93;2.22;;;;;;;16.50;94.17;100581.41;5066076;28;20044;-55
2022/09/09 02:45:20;;;;;;;7.03;2.65;;;;;;;16.52;94.21;100584.63;5065123;28;20051;-56
2022/09/09 02:48:18;;;;;;;3.63;1.70;;;;;;;16.48;94.67;100583.66;5048338;28;20410;-59
2022/09/09 02:51:18;;;;;;;6.15;2.20;;;;;;;16.50;94.80;100584.16;5058979;28;20112;-58
2022/09/09 02:54:13;;;;;;;7.72;1.92;;;;;;;16.53;94.29;100586.28;5071598;28;20071;-58
2022/09/09 02:56:50;;;;;;;6.78;2.10;;;;;;;16.52;93.72;100581.06;5064699;28;20041;-56
2022/09/09 02:59:19;;;;;;;4.85;1.83;;;;;;;16.47;94.16;100584.75;5074706;28;20170;-60
2022/09/09 03:01:46;;;;;;;6.15;1.55;;;;;;;16.43;94.46;100589.28;5055569;28;20052;-58
2022/09/09 03:04:15;;;;;;;7.88;2.03;;;;;;;16.37;94.93;100588.59;5071191;28;20492;-56
2022/09/09 03:06:43;;;;;;;4.32;1.77;;;;;;;16.37;95.07;100591.34;5064018;28;20084;-56
2022/09/09 03:09:17;;;;;;;5.20;1.75;;;;;;;16.35;95.62;100590.81;5063635;28;20666;-53
2022/09/09 03:11:45;;;;;;;7.75;2.13;;;;;;;16.35;95.28;100590.03;5054921;28;20379;-55
2022/09/09 03:14:16;;;;;;;7.07;2.40;;;;;;;16.32;95.68;100593.41;5071414;28;20437;-55
2022/09/09 03:16:44;;;;;;;6.45;1.90;;;;;;;16.32;95.83;100590.66;5069963;28;20037;-57
2022/09/09 03:19:12;;;;;;;12.50;2.38;;;;;;;16.33;95.83;100592.25;5057413;28;20491;-56
2022/09/09 03:21:41;;;;;;;5.22;2.10;;;;;;;16.31;95.54;100584.34;5069388;28;20044;-58
2022/09/09 03:24:09;;;;;;;5.57;2.08;;;;;;;16.31;96.25;100586.28;5071572;28;20055;-59
2022/09/09 03:26:37;;;;;;;4.13;1.92;;;;;;;16.33;96.11;100593.09;5065386;28;20491;-58
2022/09/09 03:29:08;;;;;;;8.82;2.42;;;;;;;16.38;96.10;100590.22;5061409;28;20117;-55
2022/09/09 03:31:36;;;;;;;5.65;1.80;;;;;;;16.37;95.83;100591.34;5060059;28;20048;-57
2022/09/09 03:34:04;;;;;;;5.35;2.03;;;;;;;16.33;96.13;100590.34;5068232;28;20041;-58
2022/09/09 03:36:34;;;;;;;7.03;2.00;;;;;;;16.34;95.90;100591.16;5038017;28;20037;-58
2022/09/09 03:39:02;;;;;;;6.30;1.90;;;;;;;16.32;96.10;100599.72;5052142;28;20043;-58
2022/09/09 03:41:31;;;;;;;7.63;2.20;;;;;;;16.34;96.01;100594.72;5074799;28;20052;-57
2022/09/09 03:44:01;;;;;;;7.55;2.22;;;;;;;16.35;95.77;100595.53;5067365;28;20085;-55
2022/09/09 03:46:33;;;;;;;5.45;2.00;;;;;;;16.33;96.13;100595.84;5049469;28;20033;-57
2022/09/09 03:49:02;;;;;;;6.75;2.08;;;;;;;16.29;96.03;100602.28;5072790;28;20040;-56
2022/09/09 03:51:31;;;;;;;7.70;2.25;;;;;;;16.22;96.58;100602.72;5062877;28;20040;-58
2022/09/09 03:54:00;;;;;;;6.45;2.10;;;;;;;16.25;97.13;100596.59;5072972;28;20037;-56
2022/09/09 03:56:28;;;;;;;6.55;1.95;;;;;;;16.29;96.74;100596.78;5073434;28;20046;-57
2022/09/09 03:58:57;;;;;;;7.82;2.10;;;;;;;16.31;96.14;100594.53;5064244;28;20121;-57
2022/09/09 04:01:25;;;;;;;6.32;2.22;;;;;;;16.26;97.12;100589.13;5073954;28;20571;-58
2022/09/09 04:03:54;;;;;;;4.57;2.10;;;;;;;16.27;97.27;100590.78;5071849;28;20039;-60
2022/09/09 04:06:22;;;;;;;4.57;1.90;;;;;;;16.26;97.11;100589.13;5072510;28;20049;-58
2022/09/09 04:08:52;;;;;;;5.03;2.00;;;;;;;16.23;97.95;100584.28;5071254;28;20043;-56
2022/09/09 04:11:20;;;;;;;4.90;1.88;;;;;;;16.25;97.61;100579.28;5078301;28;20045;-55
2022/09/09 04:13:51;;;;;;;7.43;2.22;;;;;;;16.24;97.72;100580.41;5058618;28;20032;-58
2022/09/09 04:16:19;;;;;;;8.77;2.60;;;;;;;16.21;97.77;100584.59;5067821;28;20040;-57
2022/09/09 04:18:48;;;;;;;5.13;2.13;;;;;;;16.14;98.83;100582.28;5076234;28;20041;-55
2022/09/09 04:21:17;;;;;;;7.05;2.50;;;;;;;16.17;99.01;100581.66;5055410;28;20495;-53
2022/09/09 04:23:45;;;;;;;9.85;2.22;;;;;;;16.22;98.88;100579.91;5070144;28;20081;-56
2022/09/09 04:26:14;;;;;;;9.63;2.33;;;;;;;16.19;99.04;100576.66;5075310;28;20052;-54
2022/09/09 04:28:44;;;;;;;6.25;2.17;;;;;;;16.16;99.33;100571.78;5072585;28;20048;-57
2022/09/09 04:31:23;;;;;;;8.07;2.45;;;;;;;16.15;99.81;100572.91;5066554;28;20449;-56
2022/09/09 04:33:54;;;;;;;11.82;3.10;;;;;;;16.15;100.00;100572.91;5058064;28;20052;-54
2022/09/09 04:36:22;;;;;;;6.57;2.17;;;;;;;16.14;100.00;100568.53;5051075;28;20037;-55
2022/09/09 04:38:54;;;;;;;5.15;2.10;;;;;;;16.15;100.00;100575.66;5073763;28;20056;-57
2022/09/09 04:41:22;;;;;;;13.00;2.55;;;;;;;16.19;100.00;100573.91;5066171;28;20036;-54
2022/09/09 04:43:53;;;;;;;6.55;1.98;;;;;;;16.15;100.00;100566.59;5072555;28;20090;-52
2022/09/09 04:46:23;;;;;;;5.45;1.92;;;;;;;16.12;100.00;100565.28;5052625;28;20044;-53
2022/09/09 04:48:52;;;;;;;8.50;2.20;;;;;;;16.13;100.00;100571.59;5073434;28;20047;-52
2022/09/09 04:51:21;;;;;;;7.00;2.22;;;;;;;16.14;100.00;100560.28;5057322;28;20033;-54
2022/09/09 04:53:50;;;;;;;6.32;2.08;;;;;;;16.16;100.00;100566.28;5061615;28;20052;-52
2022/09/09 04:56:20;;;;;;;8.23;2.40;;;;;;;16.22;100.00;100560.66;5048606;28;20495;-53
2022/09/09 04:58:52;;;;;;;8.88;2.53;;;;;;;16.19;100.00;100562.91;5064392;28;20045;-52
2022/09/09 05:01:24;;;;;;;5.68;1.95;;;;;;;16.15;100.00;100559.16;5071772;28;20036;-53
2022/09/09 05:03:54;;;;;;;8.27;2.50;;;;;;;16.21;100.00;100561.78;5073157;28;20048;-53
2022/09/09 05:06:23;;;;;;;9.43;2.80;;;;;;;16.24;100.00;100563.91;5064081;28;20053;-55
2022/09/09 05:08:56;;;;;;;5.22;2.40;;;;;;;16.26;100.00;100564.41;5043054;28;20040;-55
2022/09/09 05:11:28;;;;;;;6.70;2.75;;;;;;;16.24;100.00;100561.97;5070846;28;20033;-57
2022/09/09 05:14:01;;;;;;;5.13;2.08;;;;;;;16.27;100.00;100555.03;5072027;28;20040;-56
2022/09/09 05:16:31;;;;;;;10.05;2.60;;;;;;;16.44;100.00;100552.41;5070667;28;20036;-53
2022/09/09 05:18:59;;;;;;;6.88;2.58;;;;;;;16.51;99.38;100558.28;5065084;28;20049;-56
2022/09/09 05:21:34;;;;;;;8.35;1.75;;;;;;;16.49;99.24;100556.97;5056069;28;20117;-57
2022/09/09 05:24:02;;;;;;;6.53;2.20;;;;;;;16.44;99.56;100552.41;5065041;28;20449;-57
2022/09/09 05:26:31;;;;;;;8.00;2.40;;;;;;;16.40;100.00;100552.22;5047011;28;20029;-57
2022/09/09 05:29:00;;;;;;;7.85;2.90;;;;;;;16.40;100.00;100548.66;5070134;28;20494;-58
2022/09/09 05:31:30;;;;;;;12.30;2.75;;;;;;;16.38;100.00;100550.91;5072579;28;20059;-58
2022/09/09 05:34:01;;;;;;;6.70;2.30;;;;;;;16.40;100.00;100543.97;5072381;28;20040;-54
2022/09/09 05:36:29;;;;;;;10.50;2.58;;;;;;;16.39;100.00;100544.28;5069371;28;20036;-58
2022/09/09 05:38:57;;;;;;;7.32;2.42;;;;;;;16.39;100.00;100550.59;4361122;28;10000224;-55
2022/09/09 05:41:28;;;;;;;9.57;3.22;;;;;;;16.39;100.00;100553.34;5070932;28;20089;-56
2022/09/09 05:44:01;;;;;;;7.13;2.45;;;;;;;16.37;100.00;100543.78;5067189;28;20044;-53
2022/09/09 05:46:29;;;;;;;8.63;2.47;;;;;;;16.32;100.00;100541.16;5060272;28;20037;-54
2022/09/09 05:48:58;;;;;;;8.57;2.60;;;;;;;16.30;100.00;100537.91;5068062;28;20154;-52
2022/09/09 05:51:30;;;;;;;10.40;2.70;;;;;;;16.28;100.00;100546.47;5065151;28;20048;-56
2022/09/09 05:54:01;;;;;;;9.18;2.58;;;;;;;16.26;100.00;100551.50;5053579;28;20044;-57
2022/09/09 05:56:32;;;;;;;8.13;2.25;;;;;;;16.23;100.00;100549.34;5068841;28;20097;-56
2022/09/09 05:59:01;;;;;;;6.95;2.17;;;;;;;16.27;100.00;100557.78;5055652;28;20093;-53
2022/09/09 06:01:34;;;;;;;9.20;2.42;;;;;;;16.36;100.00;100564.16;5064324;28;20046;-56
2022/09/09 06:04:03;;;;;;;5.28;2.30;;;;;;;16.36;100.00;100573.22;5058507;28;20040;-53
2022/09/09 06:06:39;;;;;;;7.72;3.00;;;;;;;16.38;100.00;100573.72;5069448;28;20044;-56
2022/09/09 06:09:15;;;;;;;8.15;2.53;;;;;;;16.39;100.00;100569.03;5068506;28;20089;-56
2022/09/09 06:11:43;;;;;;;7.90;2.50;;;;;;;16.39;100.00;100574.53;5069250;28;20056;-53
2022/09/09 06:14:13;;;;;;;10.50;2.97;;;;;;;16.39;100.00;100571.78;5051760;28;20044;-56
2022/09/09 06:16:43;;;;;;;7.00;2.45;;;;;;;16.39;100.00;100575.34;5066617;28;20490;-53
2022/09/09 06:19:28;;;;;;;8.00;2.88;;;;;;;16.41;100.00;100575.03;5055910;28;20044;-62
2022/09/09 06:21:58;;;;;;;9.32;3.40;;;;;;;16.36;100.00;100573.22;5047899;28;20037;-58
2022/09/09 06:24:30;;;;;;;9.50;2.60;;;;;;;16.37;100.00;100568.53;5068194;28;20097;-58
2022/09/09 06:26:58;;;;;;;9.00;2.60;;;;;;;16.41;100.00;100566.78;5067679;28;20037;-59
2022/09/09 06:29:30;;;;;;;5.88;2.80;;;;;;;16.40;100.00;100565.97;5055819;28;20048;-57
2022/09/09 06:31:58;;;;;;;10.35;3.03;;;;;;;16.47;100.00;100560.00;5063110;28;20529;-54
2022/09/09 06:34:28;;;;;;;7.70;2.30;;;;;;;16.51;100.00;100565.72;5068521;28;20037;-55
2022/09/09 06:36:58;;;;;;;5.18;1.83;;;;;;;16.53;100.00;100553.28;5066257;28;20410;-57
2022/09/09 06:39:30;;;;;;;9.23;2.60;;;;;;;16.61;99.46;100558.00;5065694;28;20052;-56
2022/09/09 06:41:59;;;;;;;8.60;2.60;;;;;;;16.61;99.75;100565.44;5062116;28;20430;-57
2022/09/09 06:44:44;;;;;;;;;;;;;;;16.74;97.85;100566.47;5067185;28;20044;-56
2022/09/09 06:47:19;;;;;;;6.78;2.20;;;;;;;16.73;98.55;100562.13;5066354;28;20279;-60
2022/09/09 06:49:47;;;;;;;6.95;2.30;;;;;;;16.81;98.04;100569.63;5067225;28;21668;-56
2022/09/09 06:52:18;;;;;;;17.00;4.70;;;;;;;16.86;96.95;100563.16;5066289;28;20048;-57
2022/09/09 06:54:47;;;;;;;18.73;4.72;;;;;;;16.84;98.19;100563.50;5057651;28;20045;-59
2022/09/09 06:57:16;;;;;;;52.35;12.98;;;;;;;16.98;96.11;100564.22;5068101;28;20051;-54
2022/09/09 07:00:06;;;;;;;11.45;3.72;;;;;;;17.16;95.54;100559.56;5063971;28;20076;-51
2022/09/09 07:02:38;;;;;;;21.75;5.72;;;;;;;17.03;95.71;100555.81;5068102;28;20051;-54
2022/09/09 07:05:08;;;;;;;18.17;3.78;;;;;;;16.92;96.60;100548.16;5066362;28;20517;-56
2022/09/09 07:07:36;;;;;;;14.70;4.03;;;;;;;16.84;97.84;100558.00;5079334;28;20832;-57
2022/09/09 07:10:05;;;;;;;10.48;3.13;;;;;;;16.86;98.03;100554.91;5070976;28;20217;-55
2022/09/09 07:12:33;;;;;;;12.55;3.25;;;;;;;16.89;97.55;100557.84;5057241;28;20376;-52
2022/09/09 07:15:01;;;;;;;11.60;3.38;;;;;;;16.89;97.57;100551.53;5073027;28;20384;-56
2022/09/09 07:17:29;;;;;;;12.20;3.47;;;;;;;16.84;98.63;100547.00;5069963;28;20546;-56
2022/09/09 07:19:59;;;;;;;10.32;2.95;;;;;;;16.87;97.55;100554.59;5058231;28;20063;-59
2022/09/09 07:22:28;;;;;;;9.70;2.78;;;;;;;16.88;99.13;100567.22;5055109;28;20056;-54
2022/09/09 07:24:57;;;;;;;12.98;3.83;;;;;;;17.16;95.76;100561.53;5067491;28;20045;-54
2022/09/09 07:27:26;;;;;;;11.55;3.45;;;;;;;17.22;95.67;100562.97;5055245;28;20079;-51
2022/09/09 07:29:54;;;;;;;11.52;3.28;;;;;;;17.27;94.55;100554.59;5071595;28;20183;-56
2022/09/09 07:32:22;;;;;;;7.18;2.72;;;;;;;17.24;94.24;100560.72;5062833;28;20043;-56
2022/09/09 07:34:50;;;;;;;12.15;3.15;;;;;;;17.39;93.98;100563.06;5072939;28;20056;-57
2022/09/09 07:37:18;;;;;;;8.52;2.70;;;;;;;17.43;92.92;100558.50;5066883;28;20094;-57
2022/09/09 07:39:47;;;;;;;8.05;2.60;;;;;;;17.48;92.32;100565.81;5065387;28;20040;-53
2022/09/09 07:42:17;;;;;;;12.85;3.30;;;;;;;17.45;92.13;100550.75;5041583;28;20048;-54
2022/09/09 07:44:45;;;;;;;11.00;3.38;;;;;;;17.52;91.38;100557.72;5071338;28;20125;-54
2022/09/09 07:47:15;;;;;;;10.32;2.90;;;;;;;17.53;91.07;100556.59;5071180;28;20044;-55
2022/09/09 07:49:49;;;;;;;7.95;2.70;;;;;;;17.63;90.64;100562.63;5068538;28;20502;-55
2022/09/09 07:52:22;;;;;;;8.98;2.63;;;;;;;17.65;90.36;100559.50;5070037;28;20044;-57
2022/09/09 07:54:56;;;;;;;11.25;3.05;;;;;;;17.62;90.23;100562.94;5071426;28;20406;-55
2022/09/09 07:57:24;;;;;;;10.10;2.97;;;;;;;17.57;90.41;100568.59;5070132;28;20494;-57
2022/09/09 07:59:53;;;;;;;8.02;2.67;;;;;;;17.56;90.49;100564.22;5071295;28;20467;-54
2022/09/09 08:02:21;;;;;;;8.23;2.50;;;;;;;17.50;91.02;100568.25;5052991;28;20036;-55
2022/09/09 08:04:51;;;;;;;5.93;2.42;;;;;;;17.51;91.16;100565.19;5065381;28;20044;-60
2022/09/09 08:07:21;;;;;;;7.88;2.60;;;;;;;17.46;91.00;100571.66;5037520;28;20052;-56
2022/09/09 08:09:55;;;;;;;7.20;2.70;;;;;;;17.50;91.26;100573.75;5070931;28;20041;-57
2022/09/09 08:12:27;;;;;;;8.82;2.63;;;;;;;17.73;89.46;100572.50;5056754;28;20041;-52
2022/09/09 08:14:56;;;;;;;9.30;2.75;;;;;;;17.76;89.15;100571.88;5071371;28;20040;-58
2022/09/09 08:17:28;;;;;;;9.13;2.83;;;;;;;17.75;89.14;100573.00;5090912;28;20040;-56
2022/09/09 08:19:56;;;;;;;8.98;2.33;;;;;;;17.92;88.14;100575.00;5073018;28;20391;-54
2022/09/09 08:22:27;;;;;;;6.85;2.05;;;;;;;18.06;87.12;100580.31;5041517;28;20045;-57
2022/09/09 08:24:56;;;;;;;10.52;2.65;;;;;;;17.91;87.62;100575.31;5074024;28;20551;-56
2022/09/09 08:27:24;;;;;;;10.05;2.83;;;;;;;17.69;88.94;100574.28;5070873;28;20042;-59
2022/09/09 08:29:53;;;;;;;7.80;2.80;;;;;;;17.70;88.88;100573.13;5056651;28;20078;-60
2022/09/09 08:32:21;;;;;;;7.78;2.38;;;;;;;17.63;89.21;100578.31;5060881;28;20045;-57
2022/09/09 08:34:49;;;;;;;8.30;2.70;;;;;;;17.62;89.24;100576.69;5057682;28;20049;-58
2022/09/09 08:37:23;;;;;;;10.48;2.47;;;;;;;17.57;89.56;100585.13;5073385;28;20567;-56
2022/09/09 08:39:51;;;;;;;10.93;2.70;;;;;;;17.59;89.35;100577.34;5073182;28;20048;-58
2022/09/09 08:42:57;;;;;;;8.55;2.88;;;;;;;17.64;89.35;100590.97;5073799;28;20043;-60
2022/09/09 08:45:49;;;;;;;9.32;2.67;;;;;;;17.69;88.85;100593.56;5051458;28;20045;-60
2022/09/09 08:48:52;;;;;;;10.07;2.92;;;;;;;17.75;88.48;100591.47;5050058;28;20049;-57
2022/09/09 08:51:20;;;;;;;9.38;3.03;;;;;;;17.70;88.57;100588.88;5059737;28;20047;-59
2022/09/09 08:53:50;;;;;;;8.93;2.72;;;;;;;17.62;89.27;100590.47;5051137;28;20123;-56
2022/09/09 08:56:22;;;;;;;8.73;3.03;;;;;;;17.58;89.28;100589.50;5070133;28;20491;-54
2022/09/09 08:58:55;;;;;;;10.90;3.20;;;;;;;17.57;89.93;100593.38;5052791;28;20040;-60
2022/09/09 09:01:50;;;;;;;6.30;2.42;;;;;;;17.62;89.42;100596.00;5054752;28;20037;-60
2022/09/09 09:04:45;;;;;;;9.88;2.58;;;;;;;17.69;88.66;100604.59;5056186;28;20044;-57
2022/09/09 09:07:42;;;;;;;8.40;2.65;;;;;;;17.73;88.25;100593.75;5065540;28;20060;-58
2022/09/09 09:10:30;;;;;;;9.60;2.72;;;;;;;17.75;88.42;100608.84;5064360;28;20048;-58
2022/09/09 09:13:33;;;;;;;8.45;2.78;;;;;;;17.77;88.22;100601.03;5071296;28;20055;-62
2022/09/09 09:16:41;;;;;;;8.32;2.80;;;;;;;17.77;87.37;100608.50;5048264;28;20041;-57
2022/09/09 09:19:14;;;;;;;7.22;2.55;;;;;;;17.72;87.74;100606.69;5059345;28;20037;-59
2022/09/09 09:21:48;;;;;;;10.40;2.90;;;;;;;17.79;86.77;100603.47;5053772;28;20044;-61
2022/09/09 09:24:22;;;;;;;11.45;2.70;;;;;;;17.82;86.37;100600.09;5067065;28;20045;-57
2022/09/09 09:26:52;;;;;;;7.30;2.65;;;;;;;17.81;86.53;100601.25;5070605;28;20037;-60
2022/09/09 09:29:21;;;;;;;10.48;2.85;;;;;;;17.77;86.82;100609.28;5070448;28;20449;-61
2022/09/09 09:31:55;;;;;;;12.10;3.22;;;;;;;17.74;87.45;100607.19;5049882;28;20041;-60
2022/09/09 09:34:25;;;;;;;9.88;2.70;;;;;;;17.59;87.71;100602.16;5050895;28;20045;-62
2022/09/09 09:36:56;;;;;;;12.60;3.42;;;;;;;17.60;87.88;100601.81;5063725;28;20040;-60
2022/09/09 09:39:29;;;;;;;7.68;2.53;;;;;;;17.69;87.83;100601.84;5070236;28;20056;-57
2022/09/09 09:42:18;;;;;;;8.70;2.50;;;;;;;17.74;87.44;100598.13;5065253;28;20040;-57
2022/09/09 09:44:52;;;;;;;10.88;2.75;;;;;;;17.75;87.22;100599.72;5068301;28;20033;-60
2022/09/09 09:47:26;;;;;;;10.50;2.67;;;;;;;17.78;87.24;100601.88;5042827;28;20052;-58
2022/09/09 09:50:18;;;;;;;9.32;2.33;;;;;;;17.85;86.93;100603.03;5072485;28;20036;-57
2022/09/09 09:53:04;;;;;;;9.27;2.70;;;;;;;18.09;85.79;100604.50;5072862;28;20047;-63
2022/09/09 09:55:36;;;;;;;10.43;3.03;;;;;;;18.12;85.44;100601.09;5076237;28;20468;-62
2022/09/09 09:58:06;;;;;;;10.93;3.00;;;;;;;17.97;85.98;100594.13;5038705;28;20559;-61
2022/09/09 10:00:36;;;;;;;7.90;2.50;;;;;;;18.04;85.66;100594.47;5072831;28;20052;-60
2022/09/09 10:03:37;;;;;;;8.20;2.70;;;;;;;18.13;85.18;100593.63;5051603;28;20040;-60
2022/09/09 10:06:05;;;;;;;10.88;2.60;;;;;;;18.16;85.04;100596.56;5067063;28;20053;-60
2022/09/09 10:08:45;;;;;;;7.57;2.47;;;;;;;18.25;83.70;100591.84;5066207;28;20041;-63
2022/09/09 10:11:16;;;;;;;6.72;2.30;;;;;;;18.21;83.87;100588.13;5055197;28;20049;-63
2022/09/09 10:13:58;;;;;;;7.57;2.40;;;;;;;18.31;83.25;100593.31;5064312;28;20044;-62
2022/09/09 10:16:45;;;;;;;11.20;3.33;;;;;;;18.13;84.47;100590.88;5056818;28;20460;-62
2022/09/09 10:19:25;;;;;;;14.00;4.07;;;;;;;18.15;84.11;100591.38;5058162;28;20044;-63
2022/09/09 10:22:11;;;;;;;14.02;5.43;;;;;;;18.07;84.80;100591.03;5057205;28;20045;-61
2022/09/09 10:25:06;;;;;;;24.80;10.80;;;;;;;18.12;84.95;100601.09;5068225;28;20529;-63
2022/09/09 10:27:44;;;;;;;23.57;9.67;;;;;;;18.10;85.97;100598.66;5061978;28;20572;-58
2022/09/09 10:30:20;;;;;;;17.60;5.63;;;;;;;18.08;87.30;100605.63;5065914;28;20047;-61
2022/09/09 10:32:51;;;;;;;29.42;13.50;;;;;;;17.97;88.16;100607.09;5066228;28;20032;-60
2022/09/09 10:35:27;;;;;;;47.78;23.35;;;;;;;18.03;88.16;100616.81;5078187;28;20520;-61
2022/09/09 10:38:17;;;;;;;85.45;41.05;;;;;;;18.23;85.90;100618.97;5071525;28;20048;-60
2022/09/09 10:40:55;;;;;;;64.43;32.83;;;;;;;18.28;85.89;100610.50;5063505;28;20563;-63
2022/09/09 10:44:02;;;;;;;48.35;24.55;;;;;;;18.17;87.69;100608.41;5067284;28;20090;-61
2022/09/09 10:46:54;;;;;;;10.68;3.55;;;;;;;18.00;91.95;100611.97;5064758;28;20056;-62
2022/09/09 10:49:24;;;;;;;27.75;13.32;;;;;;;17.94;91.93;100610.50;5065971;28;20486;-59
2022/09/09 10:52:10;;;;;;;13.73;6.40;;;;;;;17.99;91.71;100629.63;5058990;28;20090;-59
2022/09/09 10:54:59;;;;;;;;;;;;;;;17.97;90.34;100621.69;5065504;28;20048;-58
2022/09/09 10:57:41;;;;;;;22.17;11.10;;;;;;;17.95;92.76;100620.41;5062954;28;19920;-61
2022/09/09 11:00:20;;;;;;;13.50;6.68;;;;;;;17.90;92.50;100615.03;5062552;28;20045;-62
2022/09/09 11:02:58;;;;;;;24.33;11.57;;;;;;;17.98;90.67;100617.00;5052159;28;20057;-63
2022/09/09 11:05:28;;;;;;;11.02;4.05;;;;;;;17.97;92.17;100615.38;5056016;28;20437;-61
2022/09/09 11:08:02;;;;;;;11.02;2.75;;;;;;;17.80;95.86;100622.47;5060427;28;20053;-61
2022/09/09 11:10:42;;;;;;;10.85;3.13;;;;;;;17.72;96.92;100616.91;5061115;28;20405;-60
2022/09/09 11:13:43;;;;;;;11.27;2.83;;;;;;;17.66;98.70;100610.75;5064210;28;20047;-62
2022/09/09 11:16:48;;;;;;;11.95;3.40;;;;;;;17.63;99.20;100616.88;5061262;28;20572;-62
2022/09/09 11:19:28;;;;;;;11.60;3.47;;;;;;;17.64;100.00;100613.81;5055428;28;20043;-62
2022/09/09 11:21:57;;;;;;;12.07;3.08;;;;;;;17.62;100.00;100609.75;5068740;28;20052;-61
2022/09/09 11:24:47;;;;;;;10.95;2.92;;;;;;;17.68;100.00;100600.22;5058956;28;20045;-63
2022/09/09 11:27:29;;;;;;;8.70;2.92;;;;;;;17.71;98.95;100605.09;5054856;28;20049;-59
2022/09/09 11:30:06;;;;;;;14.07;5.80;;;;;;;17.86;93.31;100612.91;5071004;28;20045;-62
2022/09/09 11:33:12;;;;;;;9.60;2.90;;;;;;;17.85;97.17;100608.53;5069027;28;20041;-63
2022/09/09 11:35:45;;;;;;;11.10;2.65;;;;;;;17.73;98.20;100616.59;5065710;28;20048;-62
2022/09/09 11:38:17;;;;;;;8.55;3.13;;;;;;;17.73;97.86;100610.28;5059574;28;20089;-60
2022/09/09 11:40:46;;;;;;;9.15;2.65;;;;;;;17.75;97.90;100603.31;5063169;28;20045;-61
2022/09/09 11:43:46;;;;;;;10.40;2.63;;;;;;;17.68;98.51;100608.50;5057379;28;20045;-60
2022/09/09 11:46:17;;;;;;;6.95;2.63;;;;;;;17.70;99.00;100608.16;5065944;28;20044;-58
2022/09/09 11:48:57;;;;;;;5.78;2.38;;;;;;;17.78;96.95;100607.38;5066244;28;20051;-62
2022/09/09 11:51:25;;;;;;;6.35;2.30;;;;;;;17.87;97.03;100606.28;5070979;28;20055;-62
2022/09/09 11:54:23;;;;;;;9.50;3.30;;;;;;;17.99;93.45;100604.81;5072770;28;20044;-62
2022/09/09 11:56:50;;;;;;;6.82;2.47;;;;;;;18.09;94.58;100604.50;5064800;28;20045;-62
2022/09/09 11:59:32;;;;;;;7.63;2.47;;;;;;;17.98;94.16;100605.97;5072815;28;20050;-60
2022/09/09 12:02:22;;;;;;;9.93;3.40;;;;;;;18.16;90.73;100602.09;5074291;28;20040;-60